Hovedside
METAR-TAF:

METAR-TAF

Lufthavner :

Gran Canaria internasjonale lufthavn

Gran Canaria, Spania

breddegrad: 27-56N, lengdegrad: 015-23W, høyde over havet: 23 m

Gjeldene værobservasjon

Denne rapporten ble laget for 35 minutter siden, klokken 15:30 UTC
Vind 17 kt fra Nordøst
Temperatur 25°C
Luftfuktighet 57%
Trykk 1017 hPa
Sikt 10 km eller mer
Få skyer i en høyde av 2500 ft

METAR: GCLP 191530Z 04017KT 9999 FEW025 25/16 Q1017 NOSIG

Tid: 17:05 (16:05 UTC)

Varsel

Denne rapporten ble laget for 2 timer og 5 minutter siden, klokken 14:00 UTC
Varsel gyldig fra 19. klokken 15 UTC til 20. klokken 15 UTC
Vind 15 kt fra Nordøst
Sikt 10 km eller mer
Få skyer i en høyde av 2500 ft
Blir
fra 19. klokken 19 UTC til 19. klokken 21 UTC
Vind 10 kt fra Nord-nordvest

TAF: GCLP 191400Z 1915/2015 04015KT 9999 FEW025 TX26/2015Z TN19/2005Z BECMG 1919/1921 34010KT

Værobservasjoner og værvarsel for over 4000 flyplasser (METAR- og TAF-rapporter).

Tilgjengelige stasjoner er representert av de røde og gule prikkene på kartet.

Hold musepekeren over prikken for å se navnet på stasjonen.

Klikk så for å se værobservasjoner og -varsler.

For å forandre kartet kan du klikke på den grønne knappen med svart kryss for å zoome inn, på den grønne knappen med strek for å zoome ut, eller på de grønne pilene for å se tilstøtende kart.


METAR-TAF: